sensor_id;sensor_type;location;lat;lon;timestamp;P1;durP1;ratioP1;P2;durP2;ratioP2
71606;SDS011;60641;53.556;9.914;2023-04-23T00:00:04;7.60;;;4.00;;
71606;SDS011;60641;53.556;9.914;2023-04-23T00:02:52;8.60;;;4.00;;
71606;SDS011;60641;53.556;9.914;2023-04-23T00:05:19;7.50;;;4.10;;
71606;SDS011;60641;53.556;9.914;2023-04-23T00:07:46;7.50;;;3.90;;
71606;SDS011;60641;53.556;9.914;2023-04-23T00:10:12;9.30;;;4.30;;
71606;SDS011;60641;53.556;9.914;2023-04-23T00:12:39;8.40;;;4.20;;
71606;SDS011;60641;53.556;9.914;2023-04-23T00:15:06;10.80;;;4.50;;
71606;SDS011;60641;53.556;9.914;2023-04-23T00:17:33;9.20;;;4.40;;
71606;SDS011;60641;53.556;9.914;2023-04-23T00:19:59;8.90;;;4.40;;
71606;SDS011;60641;53.556;9.914;2023-04-23T00:22:26;8.60;;;4.60;;
71606;SDS011;60641;53.556;9.914;2023-04-23T00:24:52;8.80;;;4.70;;
71606;SDS011;60641;53.556;9.914;2023-04-23T00:27:19;8.80;;;4.60;;
71606;SDS011;60641;53.556;9.914;2023-04-23T00:29:46;8.50;;;4.50;;
71606;SDS011;60641;53.556;9.914;2023-04-23T00:32:12;12.70;;;5.00;;
71606;SDS011;60641;53.556;9.914;2023-04-23T00:34:39;8.30;;;4.70;;
71606;SDS011;60641;53.556;9.914;2023-04-23T00:37:06;8.70;;;4.70;;
71606;SDS011;60641;53.556;9.914;2023-04-23T00:39:33;9.10;;;5.10;;
71606;SDS011;60641;53.556;9.914;2023-04-23T00:42:00;8.20;;;4.80;;
71606;SDS011;60641;53.556;9.914;2023-04-23T00:44:32;9.50;;;5.30;;
71606;SDS011;60641;53.556;9.914;2023-04-23T00:46:58;9.80;;;5.20;;
71606;SDS011;60641;53.556;9.914;2023-04-23T00:49:25;10.60;;;5.00;;
71606;SDS011;60641;53.556;9.914;2023-04-23T00:51:52;10.10;;;5.40;;
71606;SDS011;60641;53.556;9.914;2023-04-23T00:54:18;9.20;;;5.20;;
71606;SDS011;60641;53.556;9.914;2023-04-23T00:56:45;10.00;;;5.70;;
71606;SDS011;60641;53.556;9.914;2023-04-23T00:59:11;10.00;;;5.80;;
71606;SDS011;60641;53.556;9.914;2023-04-23T01:01:38;10.70;;;6.10;;
71606;SDS011;60641;53.556;9.914;2023-04-23T01:04:05;9.90;;;6.20;;
71606;SDS011;60641;53.556;9.914;2023-04-23T01:06:34;12.30;;;6.20;;
71606;SDS011;60641;53.556;9.914;2023-04-23T01:09:01;10.90;;;6.30;;
71606;SDS011;60641;53.556;9.914;2023-04-23T01:11:27;11.20;;;6.50;;
71606;SDS011;60641;53.556;9.914;2023-04-23T01:13:54;10.80;;;6.40;;
71606;SDS011;60641;53.556;9.914;2023-04-23T01:16:21;11.10;;;6.50;;
71606;SDS011;60641;53.556;9.914;2023-04-23T01:18:48;11.00;;;6.40;;
71606;SDS011;60641;53.556;9.914;2023-04-23T01:21:14;10.10;;;6.20;;
71606;SDS011;60641;53.556;9.914;2023-04-23T01:23:42;11.50;;;6.80;;
71606;SDS011;60641;53.556;9.914;2023-04-23T01:26:08;11.80;;;7.30;;
71606;SDS011;60641;53.556;9.914;2023-04-23T01:28:35;12.60;;;7.20;;
71606;SDS011;60641;53.556;9.914;2023-04-23T01:31:02;13.20;;;7.40;;
71606;SDS011;60641;53.556;9.914;2023-04-23T01:33:29;12.40;;;7.00;;
71606;SDS011;60641;53.556;9.914;2023-04-23T01:35:56;10.90;;;6.80;;
71606;SDS011;60641;53.556;9.914;2023-04-23T01:38:23;12.00;;;6.60;;
71606;SDS011;60641;53.556;9.914;2023-04-23T01:40:50;11.50;;;7.60;;
71606;SDS011;60641;53.556;9.914;2023-04-23T01:43:17;12.10;;;7.00;;
71606;SDS011;60641;53.556;9.914;2023-04-23T01:45:43;12.80;;;7.00;;
71606;SDS011;60641;53.556;9.914;2023-04-23T01:48:10;10.80;;;6.20;;
71606;SDS011;60641;53.556;9.914;2023-04-23T01:50:36;11.00;;;6.80;;
71606;SDS011;60641;53.556;9.914;2023-04-23T01:53:03;9.80;;;5.60;;
71606;SDS011;60641;53.556;9.914;2023-04-23T01:55:30;8.60;;;4.90;;
71606;SDS011;60641;53.556;9.914;2023-04-23T01:57:57;9.10;;;5.40;;
71606;SDS011;60641;53.556;9.914;2023-04-23T02:00:23;10.50;;;6.50;;
71606;SDS011;60641;53.556;9.914;2023-04-23T02:02:49;11.10;;;7.10;;
71606;SDS011;60641;53.556;9.914;2023-04-23T02:05:19;13.90;;;8.70;;
71606;SDS011;60641;53.556;9.914;2023-04-23T02:07:46;14.30;;;9.60;;
71606;SDS011;60641;53.556;9.914;2023-04-23T02:10:14;15.00;;;10.00;;
71606;SDS011;60641;53.556;9.914;2023-04-23T02:12:41;15.90;;;10.40;;
71606;SDS011;60641;53.556;9.914;2023-04-23T02:15:08;19.20;;;11.20;;
71606;SDS011;60641;53.556;9.914;2023-04-23T02:17:35;18.30;;;12.20;;
71606;SDS011;60641;53.556;9.914;2023-04-23T02:20:02;18.70;;;12.30;;
71606;SDS011;60641;53.556;9.914;2023-04-23T02:22:28;20.80;;;13.20;;
71606;SDS011;60641;53.556;9.914;2023-04-23T02:24:55;22.10;;;14.30;;
71606;SDS011;60641;53.556;9.914;2023-04-23T02:27:21;27.20;;;15.70;;
71606;SDS011;60641;53.556;9.914;2023-04-23T02:29:47;24.80;;;14.90;;
71606;SDS011;60641;53.556;9.914;2023-04-23T02:32:14;23.20;;;14.90;;
71606;SDS011;60641;53.556;9.914;2023-04-23T02:34:40;22.20;;;13.80;;
71606;SDS011;60641;53.556;9.914;2023-04-23T02:37:07;24.80;;;13.90;;
71606;SDS011;60641;53.556;9.914;2023-04-23T02:39:33;22.80;;;13.00;;
71606;SDS011;60641;53.556;9.914;2023-04-23T02:42:00;21.50;;;12.60;;
71606;SDS011;60641;53.556;9.914;2023-04-23T02:44:27;20.60;;;12.00;;
71606;SDS011;60641;53.556;9.914;2023-04-23T02:46:53;19.20;;;11.10;;
71606;SDS011;60641;53.556;9.914;2023-04-23T02:49:19;22.40;;;12.30;;
71606;SDS011;60641;53.556;9.914;2023-04-23T02:51:46;19.90;;;10.90;;
71606;SDS011;60641;53.556;9.914;2023-04-23T02:54:13;17.70;;;11.00;;
71606;SDS011;60641;53.556;9.914;2023-04-23T02:56:39;17.10;;;10.60;;
71606;SDS011;60641;53.556;9.914;2023-04-23T02:59:06;17.80;;;10.80;;
71606;SDS011;60641;53.556;9.914;2023-04-23T03:01:33;17.90;;;11.00;;
71606;SDS011;60641;53.556;9.914;2023-04-23T03:03:59;19.00;;;10.60;;
71606;SDS011;60641;53.556;9.914;2023-04-23T03:06:26;19.50;;;10.60;;
71606;SDS011;60641;53.556;9.914;2023-04-23T03:08:53;18.70;;;10.50;;
71606;SDS011;60641;53.556;9.914;2023-04-23T03:11:19;17.90;;;9.90;;
71606;SDS011;60641;53.556;9.914;2023-04-23T03:13:46;17.00;;;10.40;;
71606;SDS011;60641;53.556;9.914;2023-04-23T03:16:12;16.60;;;9.90;;
71606;SDS011;60641;53.556;9.914;2023-04-23T03:18:39;18.00;;;10.10;;
71606;SDS011;60641;53.556;9.914;2023-04-23T03:21:05;16.80;;;10.20;;
71606;SDS011;60641;53.556;9.914;2023-04-23T03:23:32;18.30;;;10.70;;
71606;SDS011;60641;53.556;9.914;2023-04-23T03:25:58;15.50;;;9.30;;
71606;SDS011;60641;53.556;9.914;2023-04-23T03:28:24;15.10;;;9.30;;
71606;SDS011;60641;53.556;9.914;2023-04-23T03:30:51;18.30;;;9.50;;
71606;SDS011;60641;53.556;9.914;2023-04-23T03:33:17;14.30;;;8.20;;
71606;SDS011;60641;53.556;9.914;2023-04-23T03:35:44;15.10;;;8.40;;
71606;SDS011;60641;53.556;9.914;2023-04-23T03:38:11;16.30;;;8.40;;
71606;SDS011;60641;53.556;9.914;2023-04-23T03:40:37;14.10;;;8.00;;
71606;SDS011;60641;53.556;9.914;2023-04-23T03:43:04;15.80;;;8.40;;
71606;SDS011;60641;53.556;9.914;2023-04-23T03:45:31;16.30;;;8.90;;
71606;SDS011;60641;53.556;9.914;2023-04-23T03:47:57;15.60;;;8.30;;
71606;SDS011;60641;53.556;9.914;2023-04-23T03:50:23;15.30;;;9.00;;
71606;SDS011;60641;53.556;9.914;2023-04-23T03:52:50;15.50;;;8.50;;
71606;SDS011;60641;53.556;9.914;2023-04-23T03:55:16;13.60;;;8.10;;
71606;SDS011;60641;53.556;9.914;2023-04-23T03:57:43;13.60;;;7.70;;
71606;SDS011;60641;53.556;9.914;2023-04-23T04:00:09;13.60;;;8.00;;
71606;SDS011;60641;53.556;9.914;2023-04-23T04:02:39;12.90;;;7.60;;
71606;SDS011;60641;53.556;9.914;2023-04-23T04:05:06;13.30;;;7.80;;
71606;SDS011;60641;53.556;9.914;2023-04-23T04:07:34;15.90;;;8.00;;
71606;SDS011;60641;53.556;9.914;2023-04-23T04:10:02;13.40;;;7.20;;
71606;SDS011;60641;53.556;9.914;2023-04-23T04:12:30;12.30;;;6.80;;
71606;SDS011;60641;53.556;9.914;2023-04-23T04:14:57;13.90;;;7.10;;
71606;SDS011;60641;53.556;9.914;2023-04-23T04:17:23;12.50;;;6.30;;
71606;SDS011;60641;53.556;9.914;2023-04-23T04:19:49;14.70;;;7.00;;
71606;SDS011;60641;53.556;9.914;2023-04-23T04:22:16;12.30;;;6.30;;
71606;SDS011;60641;53.556;9.914;2023-04-23T04:24:43;11.20;;;5.80;;
71606;SDS011;60641;53.556;9.914;2023-04-23T04:27:13;12.20;;;6.00;;
71606;SDS011;60641;53.556;9.914;2023-04-23T04:29:40;11.20;;;5.60;;
71606;SDS011;60641;53.556;9.914;2023-04-23T04:32:07;10.60;;;5.50;;
71606;SDS011;60641;53.556;9.914;2023-04-23T04:34:34;10.60;;;5.40;;
71606;SDS011;60641;53.556;9.914;2023-04-23T04:37:03;11.50;;;5.10;;
71606;SDS011;60641;53.556;9.914;2023-04-23T04:39:29;10.70;;;5.20;;
71606;SDS011;60641;53.556;9.914;2023-04-23T04:41:56;10.50;;;4.90;;
71606;SDS011;60641;53.556;9.914;2023-04-23T04:44:23;11.20;;;5.20;;
71606;SDS011;60641;53.556;9.914;2023-04-23T04:46:50;11.40;;;5.20;;
71606;SDS011;60641;53.556;9.914;2023-04-23T04:49:17;9.90;;;4.60;;
71606;SDS011;60641;53.556;9.914;2023-04-23T04:51:44;12.40;;;5.20;;
71606;SDS011;60641;53.556;9.914;2023-04-23T04:54:11;11.50;;;4.90;;
71606;SDS011;60641;53.556;9.914;2023-04-23T04:56:38;9.20;;;4.60;;
71606;SDS011;60641;53.556;9.914;2023-04-23T04:59:04;9.00;;;4.20;;
71606;SDS011;60641;53.556;9.914;2023-04-23T05:01:31;11.30;;;4.30;;
71606;SDS011;60641;53.556;9.914;2023-04-23T05:03:58;10.00;;;4.70;;
71606;SDS011;60641;53.556;9.914;2023-04-23T05:06:25;11.40;;;4.20;;
71606;SDS011;60641;53.556;9.914;2023-04-23T05:08:53;8.40;;;4.00;;
71606;SDS011;60641;53.556;9.914;2023-04-23T05:11:20;9.50;;;3.80;;
71606;SDS011;60641;53.556;9.914;2023-04-23T05:13:46;10.70;;;4.10;;
71606;SDS011;60641;53.556;9.914;2023-04-23T05:16:13;10.60;;;4.10;;
71606;SDS011;60641;53.556;9.914;2023-04-23T05:18:40;9.30;;;4.60;;
71606;SDS011;60641;53.556;9.914;2023-04-23T05:21:07;8.90;;;4.50;;
71606;SDS011;60641;53.556;9.914;2023-04-23T05:23:34;9.00;;;4.50;;
71606;SDS011;60641;53.556;9.914;2023-04-23T05:26:01;11.60;;;4.10;;
71606;SDS011;60641;53.556;9.914;2023-04-23T05:28:29;9.30;;;4.10;;
71606;SDS011;60641;53.556;9.914;2023-04-23T05:30:56;12.60;;;4.30;;
71606;SDS011;60641;53.556;9.914;2023-04-23T05:33:23;13.80;;;4.40;;
71606;SDS011;60641;53.556;9.914;2023-04-23T05:35:51;10.70;;;4.60;;
71606;SDS011;60641;53.556;9.914;2023-04-23T05:38:17;8.80;;;4.10;;
71606;SDS011;60641;53.556;9.914;2023-04-23T05:40:44;10.30;;;5.00;;
71606;SDS011;60641;53.556;9.914;2023-04-23T05:43:11;12.90;;;4.70;;
71606;SDS011;60641;53.556;9.914;2023-04-23T05:45:37;12.80;;;4.90;;
71606;SDS011;60641;53.556;9.914;2023-04-23T05:48:04;10.40;;;4.70;;
71606;SDS011;60641;53.556;9.914;2023-04-23T05:50:30;9.30;;;4.40;;
71606;SDS011;60641;53.556;9.914;2023-04-23T05:52:57;13.40;;;4.60;;
71606;SDS011;60641;53.556;9.914;2023-04-23T05:55:23;8.90;;;4.60;;
71606;SDS011;60641;53.556;9.914;2023-04-23T05:57:50;11.50;;;5.80;;
71606;SDS011;60641;53.556;9.914;2023-04-23T06:00:17;12.20;;;5.90;;
71606;SDS011;60641;53.556;9.914;2023-04-23T06:02:43;13.40;;;5.70;;
71606;SDS011;60641;53.556;9.914;2023-04-23T06:05:09;14.30;;;6.10;;
71606;SDS011;60641;53.556;9.914;2023-04-23T06:07:36;10.30;;;5.10;;
71606;SDS011;60641;53.556;9.914;2023-04-23T06:10:03;11.00;;;5.20;;
71606;SDS011;60641;53.556;9.914;2023-04-23T06:12:30;10.70;;;4.80;;
71606;SDS011;60641;53.556;9.914;2023-04-23T06:14:57;10.60;;;4.50;;
71606;SDS011;60641;53.556;9.914;2023-04-23T06:17:23;11.60;;;4.60;;
71606;SDS011;60641;53.556;9.914;2023-04-23T06:19:50;10.10;;;4.10;;
71606;SDS011;60641;53.556;9.914;2023-04-23T06:22:17;8.60;;;3.70;;
71606;SDS011;60641;53.556;9.914;2023-04-23T06:24:43;10.00;;;3.70;;
71606;SDS011;60641;53.556;9.914;2023-04-23T06:27:10;9.90;;;3.70;;
71606;SDS011;60641;53.556;9.914;2023-04-23T06:29:36;7.50;;;3.30;;
71606;SDS011;60641;53.556;9.914;2023-04-23T06:32:03;8.20;;;3.50;;
71606;SDS011;60641;53.556;9.914;2023-04-23T06:34:30;8.30;;;3.40;;
71606;SDS011;60641;53.556;9.914;2023-04-23T06:36:56;8.10;;;3.40;;
71606;SDS011;60641;53.556;9.914;2023-04-23T06:39:23;7.20;;;3.30;;
71606;SDS011;60641;53.556;9.914;2023-04-23T06:41:50;10.70;;;3.80;;
71606;SDS011;60641;53.556;9.914;2023-04-23T06:44:16;8.30;;;3.10;;
71606;SDS011;60641;53.556;9.914;2023-04-23T06:46:42;10.40;;;3.60;;
71606;SDS011;60641;53.556;9.914;2023-04-23T06:49:09;10.30;;;3.60;;
71606;SDS011;60641;53.556;9.914;2023-04-23T06:51:35;7.80;;;3.30;;
71606;SDS011;60641;53.556;9.914;2023-04-23T06:54:02;8.50;;;3.30;;
71606;SDS011;60641;53.556;9.914;2023-04-23T06:56:28;9.00;;;3.30;;
71606;SDS011;60641;53.556;9.914;2023-04-23T06:58:55;9.10;;;3.70;;
71606;SDS011;60641;53.556;9.914;2023-04-23T07:01:21;8.60;;;3.20;;
71606;SDS011;60641;53.556;9.914;2023-04-23T07:03:47;12.70;;;3.80;;
71606;SDS011;60641;53.556;9.914;2023-04-23T07:06:16;9.90;;;3.30;;
71606;SDS011;60641;53.556;9.914;2023-04-23T07:08:43;8.30;;;3.50;;
71606;SDS011;60641;53.556;9.914;2023-04-23T07:11:10;9.10;;;3.70;;
71606;SDS011;60641;53.556;9.914;2023-04-23T07:13:37;9.10;;;3.80;;
71606;SDS011;60641;53.556;9.914;2023-04-23T07:16:04;9.50;;;4.10;;
71606;SDS011;60641;53.556;9.914;2023-04-23T07:18:30;9.90;;;3.90;;
71606;SDS011;60641;53.556;9.914;2023-04-23T07:20:57;10.40;;;4.20;;
71606;SDS011;60641;53.556;9.914;2023-04-23T07:23:23;11.00;;;4.90;;
71606;SDS011;60641;53.556;9.914;2023-04-23T07:25:50;8.90;;;4.30;;
71606;SDS011;60641;53.556;9.914;2023-04-23T07:28:17;10.70;;;4.20;;
71606;SDS011;60641;53.556;9.914;2023-04-23T07:30:44;9.30;;;4.20;;
71606;SDS011;60641;53.556;9.914;2023-04-23T07:33:10;8.90;;;3.90;;
71606;SDS011;60641;53.556;9.914;2023-04-23T07:35:37;10.90;;;4.60;;
71606;SDS011;60641;53.556;9.914;2023-04-23T07:38:03;12.70;;;4.30;;
71606;SDS011;60641;53.556;9.914;2023-04-23T07:40:30;8.40;;;3.60;;
71606;SDS011;60641;53.556;9.914;2023-04-23T07:42:57;9.10;;;3.80;;
71606;SDS011;60641;53.556;9.914;2023-04-23T07:45:24;9.60;;;4.20;;
71606;SDS011;60641;53.556;9.914;2023-04-23T07:47:51;8.50;;;4.10;;
71606;SDS011;60641;53.556;9.914;2023-04-23T07:50:17;10.00;;;4.20;;
71606;SDS011;60641;53.556;9.914;2023-04-23T07:52:44;8.60;;;4.10;;
71606;SDS011;60641;53.556;9.914;2023-04-23T07:55:10;8.30;;;3.70;;
71606;SDS011;60641;53.556;9.914;2023-04-23T07:57:37;9.40;;;4.10;;
71606;SDS011;60641;53.556;9.914;2023-04-23T08:00:04;8.90;;;3.70;;
71606;SDS011;60641;53.556;9.914;2023-04-23T08:02:34;8.80;;;3.90;;
71606;SDS011;60641;53.556;9.914;2023-04-23T08:05:01;9.60;;;3.90;;
71606;SDS011;60641;53.556;9.914;2023-04-23T08:07:27;10.30;;;4.00;;
71606;SDS011;60641;53.556;9.914;2023-04-23T08:09:54;8.70;;;4.00;;
71606;SDS011;60641;53.556;9.914;2023-04-23T08:12:21;11.20;;;4.30;;
71606;SDS011;60641;53.556;9.914;2023-04-23T08:14:47;11.80;;;4.40;;
71606;SDS011;60641;53.556;9.914;2023-04-23T08:17:16;13.50;;;4.40;;
71606;SDS011;60641;53.556;9.914;2023-04-23T08:19:42;10.20;;;4.40;;
71606;SDS011;60641;53.556;9.914;2023-04-23T08:22:09;8.80;;;3.90;;
71606;SDS011;60641;53.556;9.914;2023-04-23T08:24:35;9.20;;;4.20;;
71606;SDS011;60641;53.556;9.914;2023-04-23T08:27:02;9.50;;;4.10;;
71606;SDS011;60641;53.556;9.914;2023-04-23T08:29:29;9.60;;;4.00;;
71606;SDS011;60641;53.556;9.914;2023-04-23T08:31:55;7.90;;;3.70;;
71606;SDS011;60641;53.556;9.914;2023-04-23T08:34:22;8.60;;;3.60;;
71606;SDS011;60641;53.556;9.914;2023-04-23T08:36:48;10.50;;;4.60;;
71606;SDS011;60641;53.556;9.914;2023-04-23T08:39:15;9.50;;;4.40;;
71606;SDS011;60641;53.556;9.914;2023-04-23T08:41:42;10.10;;;4.40;;
71606;SDS011;60641;53.556;9.914;2023-04-23T08:44:17;10.10;;;4.50;;
71606;SDS011;60641;53.556;9.914;2023-04-23T08:46:44;10.80;;;4.30;;
71606;SDS011;60641;53.556;9.914;2023-04-23T08:49:12;11.10;;;4.70;;
71606;SDS011;60641;53.556;9.914;2023-04-23T08:51:47;9.40;;;4.30;;
71606;SDS011;60641;53.556;9.914;2023-04-23T08:54:29;8.80;;;4.00;;
71606;SDS011;60641;53.556;9.914;2023-04-23T08:56:57;8.70;;;3.80;;
71606;SDS011;60641;53.556;9.914;2023-04-23T08:59:28;8.50;;;4.10;;
71606;SDS011;60641;53.556;9.914;2023-04-23T09:01:55;10.20;;;3.90;;
71606;SDS011;60641;53.556;9.914;2023-04-23T09:04:22;9.90;;;3.80;;
71606;SDS011;60641;53.556;9.914;2023-04-23T09:06:51;10.70;;;3.70;;
71606;SDS011;60641;53.556;9.914;2023-04-23T09:09:17;8.90;;;3.90;;
71606;SDS011;60641;53.556;9.914;2023-04-23T09:11:48;9.30;;;4.30;;
71606;SDS011;60641;53.556;9.914;2023-04-23T09:14:15;9.60;;;4.30;;
71606;SDS011;60641;53.556;9.914;2023-04-23T09:16:42;9.60;;;4.40;;
71606;SDS011;60641;53.556;9.914;2023-04-23T09:19:09;10.40;;;5.20;;
71606;SDS011;60641;53.556;9.914;2023-04-23T09:21:39;10.30;;;4.60;;
71606;SDS011;60641;53.556;9.914;2023-04-23T09:24:08;10.60;;;4.80;;
71606;SDS011;60641;53.556;9.914;2023-04-23T09:26:46;10.60;;;4.90;;
71606;SDS011;60641;53.556;9.914;2023-04-23T09:29:21;10.70;;;5.00;;
71606;SDS011;60641;53.556;9.914;2023-04-23T09:31:55;10.10;;;4.90;;
71606;SDS011;60641;53.556;9.914;2023-04-23T09:34:33;8.90;;;4.40;;
71606;SDS011;60641;53.556;9.914;2023-04-23T09:37:05;10.90;;;4.60;;
71606;SDS011;60641;53.556;9.914;2023-04-23T09:39:36;11.70;;;5.20;;
71606;SDS011;60641;53.556;9.914;2023-04-23T09:42:03;9.90;;;5.00;;
71606;SDS011;60641;53.556;9.914;2023-04-23T09:44:31;11.30;;;5.30;;
71606;SDS011;60641;53.556;9.914;2023-04-23T09:47:07;10.60;;;4.90;;
71606;SDS011;60641;53.556;9.914;2023-04-23T09:49:46;9.00;;;4.70;;
71606;SDS011;60641;53.556;9.914;2023-04-23T09:52:13;9.30;;;4.70;;
71606;SDS011;60641;53.556;9.914;2023-04-23T09:54:40;9.10;;;5.00;;
71606;SDS011;60641;53.556;9.914;2023-04-23T09:57:07;12.90;;;5.50;;
71606;SDS011;60641;53.556;9.914;2023-04-23T09:59:34;12.20;;;5.30;;
71606;SDS011;60641;53.556;9.914;2023-04-23T10:02:05;10.90;;;5.50;;
71606;SDS011;60641;53.556;9.914;2023-04-23T10:04:33;12.90;;;6.40;;
71606;SDS011;60641;53.556;9.914;2023-04-23T10:07:00;12.00;;;6.40;;
71606;SDS011;60641;53.556;9.914;2023-04-23T10:09:30;11.20;;;6.30;;
71606;SDS011;60641;53.556;9.914;2023-04-23T10:12:00;12.20;;;6.70;;
71606;SDS011;60641;53.556;9.914;2023-04-23T10:14:27;12.00;;;7.10;;
71606;SDS011;60641;53.556;9.914;2023-04-23T10:16:59;10.30;;;6.00;;
71606;SDS011;60641;53.556;9.914;2023-04-23T10:19:27;12.00;;;6.40;;
71606;SDS011;60641;53.556;9.914;2023-04-23T10:21:55;12.10;;;7.20;;
71606;SDS011;60641;53.556;9.914;2023-04-23T10:24:23;11.30;;;6.40;;
71606;SDS011;60641;53.556;9.914;2023-04-23T10:26:50;12.80;;;7.10;;
71606;SDS011;60641;53.556;9.914;2023-04-23T10:29:20;12.90;;;7.50;;
71606;SDS011;60641;53.556;9.914;2023-04-23T10:31:52;13.40;;;7.50;;
71606;SDS011;60641;53.556;9.914;2023-04-23T10:34:19;11.70;;;7.30;;
71606;SDS011;60641;53.556;9.914;2023-04-23T10:36:47;12.10;;;6.50;;
71606;SDS011;60641;53.556;9.914;2023-04-23T10:39:13;13.90;;;7.80;;
71606;SDS011;60641;53.556;9.914;2023-04-23T10:41:41;12.80;;;8.00;;
71606;SDS011;60641;53.556;9.914;2023-04-23T10:44:12;12.50;;;7.70;;
71606;SDS011;60641;53.556;9.914;2023-04-23T10:46:39;13.50;;;8.20;;
71606;SDS011;60641;53.556;9.914;2023-04-23T10:49:18;13.80;;;7.90;;
71606;SDS011;60641;53.556;9.914;2023-04-23T10:51:47;14.90;;;9.00;;
71606;SDS011;60641;53.556;9.914;2023-04-23T10:54:15;14.00;;;8.40;;
71606;SDS011;60641;53.556;9.914;2023-04-23T10:56:42;12.80;;;7.90;;
71606;SDS011;60641;53.556;9.914;2023-04-23T10:59:18;13.40;;;7.90;;
71606;SDS011;60641;53.556;9.914;2023-04-23T11:01:46;13.00;;;7.40;;
71606;SDS011;60641;53.556;9.914;2023-04-23T11:04:20;11.40;;;7.20;;
71606;SDS011;60641;53.556;9.914;2023-04-23T11:06:51;12.80;;;6.90;;
71606;SDS011;60641;53.556;9.914;2023-04-23T11:11:58;12.50;;;7.20;;
71606;SDS011;60641;53.556;9.914;2023-04-23T11:17:11;10.80;;;6.80;;
71606;SDS011;60641;53.556;9.914;2023-04-23T11:19:39;12.00;;;7.00;;
71606;SDS011;60641;53.556;9.914;2023-04-23T11:22:13;11.40;;;6.60;;
71606;SDS011;60641;53.556;9.914;2023-04-23T11:24:42;12.30;;;6.20;;
71606;SDS011;60641;53.556;9.914;2023-04-23T11:27:16;10.90;;;6.80;;
71606;SDS011;60641;53.556;9.914;2023-04-23T11:29:44;11.50;;;6.30;;
71606;SDS011;60641;53.556;9.914;2023-04-23T11:32:16;10.30;;;6.20;;
71606;SDS011;60641;53.556;9.914;2023-04-23T11:34:43;11.00;;;6.10;;
71606;SDS011;60641;53.556;9.914;2023-04-23T11:37:11;10.50;;;6.20;;
71606;SDS011;60641;53.556;9.914;2023-04-23T11:39:39;11.50;;;5.50;;
71606;SDS011;60641;53.556;9.914;2023-04-23T11:44:42;9.30;;;5.20;;
71606;SDS011;60641;53.556;9.914;2023-04-23T11:47:10;9.20;;;4.40;;
71606;SDS011;60641;53.556;9.914;2023-04-23T11:49:38;8.40;;;4.30;;
71606;SDS011;60641;53.556;9.914;2023-04-23T11:52:09;9.90;;;4.90;;
71606;SDS011;60641;53.556;9.914;2023-04-23T11:54:38;9.10;;;4.50;;
71606;SDS011;60641;53.556;9.914;2023-04-23T11:57:05;9.90;;;4.70;;
71606;SDS011;60641;53.556;9.914;2023-04-23T11:59:32;8.80;;;4.80;;
71606;SDS011;60641;53.556;9.914;2023-04-23T12:01:58;9.30;;;5.30;;
71606;SDS011;60641;53.556;9.914;2023-04-23T12:04:26;9.00;;;4.80;;
71606;SDS011;60641;53.556;9.914;2023-04-23T12:06:53;9.70;;;5.60;;
71606;SDS011;60641;53.556;9.914;2023-04-23T12:09:22;9.10;;;5.10;;
71606;SDS011;60641;53.556;9.914;2023-04-23T12:11:50;11.10;;;6.60;;
71606;SDS011;60641;53.556;9.914;2023-04-23T12:14:18;10.30;;;4.90;;
71606;SDS011;60641;53.556;9.914;2023-04-23T12:16:47;9.10;;;4.20;;
71606;SDS011;60641;53.556;9.914;2023-04-23T12:19:27;9.70;;;4.80;;
71606;SDS011;60641;53.556;9.914;2023-04-23T12:21:56;8.00;;;4.70;;
71606;SDS011;60641;53.556;9.914;2023-04-23T12:24:25;8.90;;;4.40;;
71606;SDS011;60641;53.556;9.914;2023-04-23T12:26:56;9.40;;;4.70;;
71606;SDS011;60641;53.556;9.914;2023-04-23T12:29:27;8.80;;;4.20;;
71606;SDS011;60641;53.556;9.914;2023-04-23T12:31:56;7.30;;;3.90;;
71606;SDS011;60641;53.556;9.914;2023-04-23T12:34:23;9.30;;;4.60;;
71606;SDS011;60641;53.556;9.914;2023-04-23T12:36:50;7.80;;;3.80;;
71606;SDS011;60641;53.556;9.914;2023-04-23T12:39:19;9.80;;;4.60;;
71606;SDS011;60641;53.556;9.914;2023-04-23T12:42:05;8.80;;;4.60;;
71606;SDS011;60641;53.556;9.914;2023-04-23T12:44:34;7.80;;;3.90;;
71606;SDS011;60641;53.556;9.914;2023-04-23T12:47:02;9.00;;;3.90;;
71606;SDS011;60641;53.556;9.914;2023-04-23T12:49:30;8.00;;;3.60;;
71606;SDS011;60641;53.556;9.914;2023-04-23T12:51:58;7.60;;;3.50;;
71606;SDS011;60641;53.556;9.914;2023-04-23T12:54:29;7.30;;;3.20;;
71606;SDS011;60641;53.556;9.914;2023-04-23T12:56:59;6.40;;;3.20;;
71606;SDS011;60641;53.556;9.914;2023-04-23T12:59:29;7.20;;;3.10;;
71606;SDS011;60641;53.556;9.914;2023-04-23T13:01:56;10.70;;;3.10;;
71606;SDS011;60641;53.556;9.914;2023-04-23T13:04:27;6.90;;;2.80;;
71606;SDS011;60641;53.556;9.914;2023-04-23T13:06:54;6.30;;;3.20;;
71606;SDS011;60641;53.556;9.914;2023-04-23T13:09:20;7.50;;;2.90;;
71606;SDS011;60641;53.556;9.914;2023-04-23T13:11:49;6.30;;;3.10;;
71606;SDS011;60641;53.556;9.914;2023-04-23T13:14:16;7.90;;;3.30;;
71606;SDS011;60641;53.556;9.914;2023-04-23T13:16:42;6.30;;;2.80;;
71606;SDS011;60641;53.556;9.914;2023-04-23T13:19:09;9.50;;;2.90;;
71606;SDS011;60641;53.556;9.914;2023-04-23T13:21:36;7.00;;;2.70;;
71606;SDS011;60641;53.556;9.914;2023-04-23T13:24:02;6.30;;;2.70;;
71606;SDS011;60641;53.556;9.914;2023-04-23T13:26:29;6.00;;;2.50;;
71606;SDS011;60641;53.556;9.914;2023-04-23T13:29:00;5.90;;;2.60;;
71606;SDS011;60641;53.556;9.914;2023-04-23T13:31:27;6.40;;;2.80;;
71606;SDS011;60641;53.556;9.914;2023-04-23T13:33:54;6.70;;;2.80;;
71606;SDS011;60641;53.556;9.914;2023-04-23T13:36:21;6.90;;;3.10;;
71606;SDS011;60641;53.556;9.914;2023-04-23T13:38:47;8.30;;;2.50;;
71606;SDS011;60641;53.556;9.914;2023-04-23T13:41:14;6.60;;;2.60;;
71606;SDS011;60641;53.556;9.914;2023-04-23T13:43:40;8.40;;;2.40;;
71606;SDS011;60641;53.556;9.914;2023-04-23T13:46:07;5.50;;;2.60;;
71606;SDS011;60641;53.556;9.914;2023-04-23T13:48:34;7.00;;;3.00;;
71606;SDS011;60641;53.556;9.914;2023-04-23T13:51:00;8.20;;;2.90;;
71606;SDS011;60641;53.556;9.914;2023-04-23T13:53:27;8.60;;;3.20;;
71606;SDS011;60641;53.556;9.914;2023-04-23T13:55:54;12.20;;;5.40;;
71606;SDS011;60641;53.556;9.914;2023-04-23T13:58:21;12.70;;;5.40;;
71606;SDS011;60641;53.556;9.914;2023-04-23T14:00:48;9.30;;;2.90;;
71606;SDS011;60641;53.556;9.914;2023-04-23T14:03:15;7.60;;;3.10;;
71606;SDS011;60641;53.556;9.914;2023-04-23T14:05:42;7.10;;;2.70;;
71606;SDS011;60641;53.556;9.914;2023-04-23T14:08:08;8.20;;;3.00;;
71606;SDS011;60641;53.556;9.914;2023-04-23T14:10:35;7.50;;;3.10;;
71606;SDS011;60641;53.556;9.914;2023-04-23T14:13:02;7.80;;;2.70;;
71606;SDS011;60641;53.556;9.914;2023-04-23T14:15:29;9.90;;;3.20;;
71606;SDS011;60641;53.556;9.914;2023-04-23T14:17:56;8.30;;;3.00;;
71606;SDS011;60641;53.556;9.914;2023-04-23T14:20:22;6.40;;;2.80;;
71606;SDS011;60641;53.556;9.914;2023-04-23T14:22:50;6.80;;;2.60;;
71606;SDS011;60641;53.556;9.914;2023-04-23T14:25:28;7.30;;;3.10;;
71606;SDS011;60641;53.556;9.914;2023-04-23T14:27:56;8.10;;;3.00;;
71606;SDS011;60641;53.556;9.914;2023-04-23T14:30:22;10.10;;;3.00;;
71606;SDS011;60641;53.556;9.914;2023-04-23T14:32:51;10.20;;;3.50;;
71606;SDS011;60641;53.556;9.914;2023-04-23T14:35:19;8.50;;;3.70;;
71606;SDS011;60641;53.556;9.914;2023-04-23T14:37:46;9.40;;;4.00;;
71606;SDS011;60641;53.556;9.914;2023-04-23T14:40:13;10.80;;;3.90;;
71606;SDS011;60641;53.556;9.914;2023-04-23T14:42:45;10.30;;;4.60;;
71606;SDS011;60641;53.556;9.914;2023-04-23T14:45:14;9.40;;;4.30;;
71606;SDS011;60641;53.556;9.914;2023-04-23T14:47:43;9.30;;;3.80;;